createdAt,value
2022-07-30T00:01:08.284Z,10.60
2022-07-30T00:03:51.668Z,11.13
2022-07-30T00:06:29.438Z,9.55
2022-07-30T00:09:11.286Z,11.32
2022-07-30T00:12:06.060Z,10.77
2022-07-30T00:14:52.644Z,6.97
2022-07-30T00:17:36.022Z,9.25
2022-07-30T00:20:22.412Z,7.35
2022-07-30T00:23:14.133Z,9.05
2022-07-30T00:26:12.857Z,9.82
2022-07-30T00:28:49.933Z,9.02
2022-07-30T00:31:30.078Z,8.32
2022-07-30T00:34:06.758Z,7.47
2022-07-30T00:36:51.763Z,8.23
2022-07-30T00:39:46.423Z,7.35
2022-07-30T00:43:08.040Z,12.75
2022-07-30T00:45:49.278Z,8.65
2022-07-30T00:51:25.870Z,8.13
2022-07-30T00:54:10.992Z,9.63
2022-07-30T00:56:48.211Z,7.07
2022-07-30T00:59:31.581Z,8.45
2022-07-30T01:02:14.970Z,10.60
2022-07-30T01:04:55.198Z,9.60
2022-07-30T01:07:38.775Z,5.95
2022-07-30T01:10:20.632Z,9.18
2022-07-30T01:13:15.694Z,12.15
2022-07-30T01:16:17.021Z,9.27
2022-07-30T01:19:13.175Z,6.80
2022-07-30T01:22:35.617Z,6.55
2022-07-30T01:25:26.498Z,6.55
2022-07-30T01:29:05.273Z,7.65
2022-07-30T01:31:47.828Z,7.97
2022-07-30T01:34:26.485Z,5.32
2022-07-30T01:37:07.011Z,6.68
2022-07-30T01:40:07.709Z,7.13
2022-07-30T01:42:48.527Z,8.63
2022-07-30T01:45:32.308Z,8.18
2022-07-30T01:48:34.574Z,6.78
2022-07-30T01:51:42.850Z,10.52
2022-07-30T01:54:25.126Z,6.93
2022-07-30T01:57:50.440Z,5.43
2022-07-30T02:01:02.429Z,7.78
2022-07-30T02:03:42.781Z,6.47
2022-07-30T02:10:04.694Z,7.57
2022-07-30T02:13:17.249Z,10.23
2022-07-30T02:16:44.624Z,6.57
2022-07-30T02:20:09.729Z,5.75
2022-07-30T02:23:29.621Z,9.52
2022-07-30T02:26:10.633Z,8.10
2022-07-30T02:29:11.222Z,7.75
2022-07-30T02:31:56.736Z,7.80
2022-07-30T02:35:01.708Z,5.28
2022-07-30T02:38:03.996Z,8.02
2022-07-30T02:40:41.825Z,8.38
2022-07-30T02:46:40.916Z,6.43
2022-07-30T02:50:14.245Z,6.15
2022-07-30T02:52:52.876Z,6.10
2022-07-30T02:55:55.781Z,8.07
2022-07-30T02:58:37.446Z,5.25
2022-07-30T03:01:51.290Z,6.25
2022-07-30T03:04:55.014Z,7.78
2022-07-30T03:07:54.097Z,6.15
2022-07-30T03:10:44.266Z,7.32
2022-07-30T03:14:08.562Z,5.53
2022-07-30T03:16:48.874Z,5.43
2022-07-30T03:19:48.234Z,6.32
2022-07-30T03:23:00.366Z,5.60
2022-07-30T03:25:54.983Z,6.82
2022-07-30T03:28:37.029Z,5.93
2022-07-30T03:31:22.651Z,5.20
2022-07-30T03:34:02.271Z,7.18
2022-07-30T03:36:55.753Z,4.68
2022-07-30T03:39:55.618Z,8.00
2022-07-30T03:42:36.323Z,9.82
2022-07-30T03:45:23.464Z,6.25
2022-07-30T03:48:17.426Z,7.85
2022-07-30T03:50:58.247Z,5.30
2022-07-30T03:54:02.969Z,7.03
2022-07-30T03:56:49.626Z,6.03
2022-07-30T04:00:03.982Z,5.50
2022-07-30T04:03:08.262Z,6.97
2022-07-30T04:06:02.517Z,6.70
2022-07-30T04:08:47.368Z,7.32
2022-07-30T04:11:41.623Z,6.22
2022-07-30T04:14:41.008Z,6.68
2022-07-30T04:17:36.319Z,6.63
2022-07-30T04:20:44.542Z,8.65
2022-07-30T04:23:27.029Z,7.72
2022-07-30T04:26:08.309Z,5.90
2022-07-30T04:29:01.037Z,7.60
2022-07-30T04:31:40.482Z,5.00
2022-07-30T04:35:07.533Z,8.32
2022-07-30T04:38:16.130Z,7.55
2022-07-30T04:41:03.427Z,8.82
2022-07-30T04:44:01.328Z,4.43
2022-07-30T04:46:44.903Z,6.97
2022-07-30T04:49:29.281Z,6.88
2022-07-30T04:52:26.926Z,4.07
2022-07-30T04:55:46.171Z,4.80
2022-07-30T04:58:32.162Z,8.48
2022-07-30T05:04:10.565Z,6.85
2022-07-30T05:06:52.320Z,4.70
2022-07-30T05:09:44.198Z,5.50
2022-07-30T05:12:25.701Z,6.38
2022-07-30T05:15:18.797Z,3.40
2022-07-30T05:19:00.626Z,3.97
2022-07-30T05:21:38.463Z,5.45
2022-07-30T05:24:21.047Z,4.18
2022-07-30T05:27:25.598Z,4.82
2022-07-30T05:30:11.753Z,7.22
2022-07-30T05:33:15.552Z,4.55
2022-07-30T05:36:18.278Z,3.97
2022-07-30T05:39:00.329Z,5.55
2022-07-30T05:42:16.929Z,5.30
2022-07-30T05:45:18.077Z,4.38
2022-07-30T05:47:57.435Z,4.07
2022-07-30T05:50:36.209Z,4.93
2022-07-30T05:53:22.785Z,3.55
2022-07-30T05:56:31.317Z,5.47
2022-07-30T05:59:25.312Z,5.57
2022-07-30T06:02:13.863Z,9.27
2022-07-30T06:05:19.895Z,8.35
2022-07-30T06:08:01.801Z,10.38
2022-07-30T06:10:43.630Z,6.97
2022-07-30T06:13:24.040Z,6.82
2022-07-30T06:16:07.455Z,9.38
2022-07-30T06:18:57.389Z,7.88
2022-07-30T06:22:33.965Z,10.57
2022-07-30T06:25:29.655Z,11.68
2022-07-30T06:28:36.482Z,7.75
2022-07-30T06:31:45.272Z,5.60
2022-07-30T06:34:26.340Z,6.75
2022-07-30T06:38:05.765Z,4.40
2022-07-30T06:40:30.364Z,7.15
2022-07-30T06:43:14.742Z,4.38
2022-07-30T06:46:32.246Z,5.75
2022-07-30T06:49:08.453Z,5.45
2022-07-30T06:52:00.137Z,8.02
2022-07-30T06:54:41.948Z,9.57
2022-07-30T06:57:58.583Z,7.75
2022-07-30T07:01:34.269Z,6.13
2022-07-30T07:07:41.896Z,7.43
2022-07-30T07:10:44.447Z,6.20
2022-07-30T07:13:32.422Z,7.80
2022-07-30T07:16:39.641Z,7.28
2022-07-30T07:20:00.086Z,8.18
2022-07-30T07:23:09.414Z,7.40
2022-07-30T07:26:03.231Z,7.97
2022-07-30T07:28:51.414Z,6.53
2022-07-30T07:32:02.824Z,6.88
2022-07-30T07:34:43.244Z,7.85
2022-07-30T07:37:28.325Z,6.30
2022-07-30T07:40:31.804Z,7.72
2022-07-30T07:43:07.911Z,7.35
2022-07-30T07:45:54.501Z,7.20
2022-07-30T07:48:42.481Z,8.00
2022-07-30T07:54:26.894Z,7.47
2022-07-30T07:57:05.907Z,8.70
2022-07-30T08:00:00.200Z,10.98
2022-07-30T08:02:47.934Z,11.23
2022-07-30T08:05:56.784Z,10.40
2022-07-30T08:08:55.033Z,13.20
2022-07-30T08:12:00.717Z,17.60
2022-07-30T08:15:28.364Z,17.60
2022-07-30T08:18:23.423Z,12.30
2022-07-30T08:21:10.313Z,11.80
2022-07-30T08:24:11.195Z,12.38
2022-07-30T08:26:53.312Z,19.73
2022-07-30T08:29:46.572Z,15.82
2022-07-30T08:32:54.370Z,12.43
2022-07-30T08:35:31.267Z,15.32
2022-07-30T08:38:39.194Z,10.98
2022-07-30T08:41:48.751Z,12.55
2022-07-30T08:44:50.920Z,13.95
2022-07-30T08:48:07.742Z,15.60
2022-07-30T08:51:04.015Z,10.30
2022-07-30T08:54:06.262Z,9.63
2022-07-30T08:56:59.333Z,11.35
2022-07-30T09:00:06.955Z,9.35
2022-07-30T09:02:46.034Z,11.52
2022-07-30T09:05:26.766Z,8.50
2022-07-30T09:08:08.809Z,15.82
2022-07-30T09:11:06.607Z,13.27
2022-07-30T09:13:46.698Z,11.10
2022-07-30T09:16:30.337Z,13.73
2022-07-30T09:19:28.533Z,9.95
2022-07-30T09:22:32.120Z,8.48
2022-07-30T09:25:49.496Z,7.40
2022-07-30T09:28:44.034Z,9.25
2022-07-30T09:35:43.449Z,10.13
2022-07-30T09:38:20.303Z,8.00
2022-07-30T09:41:49.525Z,10.18
2022-07-30T09:44:54.302Z,8.60
2022-07-30T09:48:15.141Z,9.90
2022-07-30T09:50:57.854Z,12.95
2022-07-30T09:53:45.503Z,12.15
2022-07-30T09:56:32.517Z,23.65
2022-07-30T09:59:37.610Z,23.13
2022-07-30T10:02:24.276Z,20.95
2022-07-30T10:05:27.108Z,21.48
2022-07-30T10:08:18.968Z,19.05
2022-07-30T10:11:52.877Z,16.85
2022-07-30T10:15:14.414Z,15.48
2022-07-30T10:17:57.876Z,15.93
2022-07-30T10:21:05.338Z,16.70
2022-07-30T10:24:41.727Z,12.15
2022-07-30T10:28:46.054Z,11.90
2022-07-30T10:31:49.009Z,13.68
2022-07-30T10:34:27.675Z,13.70
2022-07-30T10:37:36.192Z,9.48
2022-07-30T10:41:22.213Z,11.82
2022-07-30T10:44:50.038Z,12.55
2022-07-30T10:47:50.259Z,11.57
2022-07-30T10:50:34.955Z,11.10
2022-07-30T10:53:28.467Z,11.88
2022-07-30T10:56:32.217Z,14.07
2022-07-30T10:59:11.801Z,11.77
2022-07-30T11:02:27.335Z,13.57
2022-07-30T11:06:24.197Z,12.10
2022-07-30T11:09:49.795Z,10.70
2022-07-30T11:13:19.999Z,10.43
2022-07-30T11:16:27.541Z,11.15
2022-07-30T11:19:55.315Z,11.52
2022-07-30T11:23:15.573Z,13.20
2022-07-30T11:25:59.436Z,10.25
2022-07-30T11:28:54.018Z,11.70
2022-07-30T11:32:33.765Z,12.13
2022-07-30T11:35:45.194Z,9.00
2022-07-30T11:39:38.640Z,11.38
2022-07-30T11:42:56.868Z,12.05
2022-07-30T11:45:46.576Z,9.63
2022-07-30T11:48:24.871Z,8.90
2022-07-30T11:51:08.042Z,11.25
2022-07-30T11:53:44.352Z,12.50
2022-07-30T11:56:41.986Z,16.05
2022-07-30T11:59:33.122Z,10.55
2022-07-30T12:02:17.263Z,11.18
2022-07-30T12:05:19.505Z,9.05
2022-07-30T12:08:04.423Z,12.13
2022-07-30T12:11:13.760Z,13.55
2022-07-30T12:14:20.613Z,12.05
2022-07-30T12:17:15.305Z,12.35
2022-07-30T12:20:03.789Z,9.63
2022-07-30T12:22:56.906Z,10.05
2022-07-30T12:25:33.124Z,8.20
2022-07-30T12:28:39.805Z,9.23
2022-07-30T12:31:49.017Z,9.00
2022-07-30T12:35:05.949Z,9.00
2022-07-30T12:37:47.753Z,13.20
2022-07-30T12:40:30.144Z,7.88
2022-07-30T12:43:06.453Z,8.02
2022-07-30T12:46:42.183Z,9.05
2022-07-30T12:49:25.621Z,8.20
2022-07-30T12:53:08.557Z,9.93
2022-07-30T12:55:49.882Z,8.43
2022-07-30T12:58:31.085Z,10.85
2022-07-30T13:01:08.349Z,8.25
2022-07-30T13:04:06.115Z,8.70
2022-07-30T13:06:54.723Z,10.40
2022-07-30T13:12:27.367Z,9.82
2022-07-30T13:15:11.670Z,9.85
2022-07-30T13:18:00.990Z,8.38
2022-07-30T13:20:49.732Z,7.18
2022-07-30T13:23:30.024Z,9.32
2022-07-30T13:26:32.716Z,8.48
2022-07-30T13:29:20.951Z,7.85
2022-07-30T13:32:01.789Z,10.55
2022-07-30T13:35:01.577Z,6.78
2022-07-30T13:40:49.057Z,9.48
2022-07-30T13:43:29.731Z,8.00
2022-07-30T13:49:55.573Z,9.23
2022-07-30T13:52:45.571Z,9.18
2022-07-30T13:55:23.565Z,7.97
2022-07-30T13:58:23.886Z,8.90
2022-07-30T14:01:25.723Z,9.02
2022-07-30T14:04:04.317Z,8.20
2022-07-30T14:06:49.366Z,11.10
2022-07-30T14:09:56.223Z,8.73
2022-07-30T14:15:31.992Z,8.38
2022-07-30T14:18:16.870Z,7.47
2022-07-30T14:20:57.794Z,6.68
2022-07-30T14:23:40.962Z,8.27
2022-07-30T14:26:19.660Z,9.77
2022-07-30T14:28:59.552Z,8.70
2022-07-30T14:31:56.660Z,8.80
2022-07-30T14:34:41.591Z,9.63
2022-07-30T14:37:46.320Z,9.88
2022-07-30T14:41:01.140Z,10.07
2022-07-30T14:43:38.722Z,8.90
2022-07-30T14:46:33.271Z,9.00
2022-07-30T14:49:15.588Z,7.05
2022-07-30T14:52:19.238Z,9.50
2022-07-30T14:55:29.930Z,9.75
2022-07-30T14:58:06.161Z,8.40
2022-07-30T15:00:49.236Z,8.57
2022-07-30T15:03:43.280Z,9.57
2022-07-30T15:06:20.297Z,9.55
2022-07-30T15:09:12.596Z,7.32
2022-07-30T15:12:23.444Z,9.40
2022-07-30T15:18:29.271Z,7.93
2022-07-30T15:21:11.452Z,10.63
2022-07-30T15:24:05.899Z,8.45
2022-07-30T15:26:57.179Z,8.73
2022-07-30T15:29:39.875Z,9.15
2022-07-30T15:32:24.632Z,9.18
2022-07-30T15:35:08.403Z,7.18
2022-07-30T15:38:00.203Z,7.00
2022-07-30T15:40:42.521Z,10.27
2022-07-30T15:43:35.459Z,13.57
2022-07-30T15:46:15.728Z,9.45
2022-07-30T15:48:58.277Z,9.07
2022-07-30T15:51:41.891Z,8.82
2022-07-30T15:54:22.624Z,9.55
2022-07-30T15:57:46.346Z,8.23
2022-07-30T16:00:23.322Z,9.73
2022-07-30T16:03:02.418Z,9.23
2022-07-30T16:05:51.710Z,11.88
2022-07-30T16:08:48.015Z,11.70
2022-07-30T16:11:38.858Z,12.27
2022-07-30T16:14:20.596Z,10.68
2022-07-30T16:17:24.310Z,9.90
2022-07-30T16:20:16.063Z,9.75
2022-07-30T16:22:55.597Z,9.98
2022-07-30T16:25:32.761Z,9.75
2022-07-30T16:28:22.532Z,10.98
2022-07-30T16:31:18.609Z,14.25
2022-07-30T16:34:16.513Z,7.63
2022-07-30T16:37:05.621Z,9.95
2022-07-30T16:40:05.546Z,8.90
2022-07-30T16:42:49.129Z,9.50
2022-07-30T16:45:29.406Z,8.30
2022-07-30T16:48:20.861Z,9.13
2022-07-30T16:51:02.486Z,8.80
2022-07-30T16:53:50.359Z,9.23
2022-07-30T16:56:49.779Z,11.95
2022-07-30T16:59:28.099Z,11.60
2022-07-30T17:02:12.155Z,9.60
2022-07-30T17:05:09.605Z,8.02
2022-07-30T17:08:05.248Z,10.13
2022-07-30T17:10:43.988Z,9.65
2022-07-30T17:13:23.476Z,11.43
2022-07-30T17:16:34.037Z,8.35
2022-07-30T17:19:31.078Z,6.93
2022-07-30T17:22:19.016Z,13.95
2022-07-30T17:25:07.905Z,9.10
2022-07-30T17:27:50.615Z,8.02
2022-07-30T17:30:36.060Z,8.55
2022-07-30T17:33:21.083Z,9.68
2022-07-30T17:36:05.596Z,8.93
2022-07-30T17:38:54.276Z,11.38
2022-07-30T17:41:30.638Z,8.95
2022-07-30T17:44:19.584Z,11.52
2022-07-30T17:47:00.566Z,9.88
2022-07-30T17:49:41.583Z,9.73
2022-07-30T17:52:27.797Z,8.27
2022-07-30T17:55:21.344Z,14.00
2022-07-30T17:58:04.647Z,7.72
2022-07-30T18:00:43.396Z,9.55
2022-07-30T18:03:46.142Z,7.78
2022-07-30T18:06:22.043Z,11.40
2022-07-30T18:09:10.219Z,8.50
2022-07-30T18:11:53.614Z,7.50
2022-07-30T18:14:33.450Z,8.32
2022-07-30T18:17:14.400Z,6.75
2022-07-30T18:20:17.294Z,9.35
2022-07-30T18:22:56.079Z,7.28
2022-07-30T18:26:30.115Z,7.47
2022-07-30T18:29:02.712Z,9.98
2022-07-30T18:31:41.554Z,9.73
2022-07-30T18:34:24.280Z,7.43
2022-07-30T18:37:13.874Z,7.35
2022-07-30T18:39:54.770Z,9.52
2022-07-30T18:42:36.873Z,9.10
2022-07-30T18:45:35.236Z,7.63
2022-07-30T18:48:37.623Z,7.13
2022-07-30T18:51:16.890Z,7.47
2022-07-30T18:54:23.739Z,6.60
2022-07-30T18:57:03.920Z,7.63
2022-07-30T18:59:59.449Z,11.43
2022-07-30T19:03:02.024Z,12.05
2022-07-30T19:05:39.765Z,8.07
2022-07-30T19:08:22.528Z,7.90
2022-07-30T19:11:10.651Z,8.38
2022-07-30T19:13:47.556Z,7.78
2022-07-30T19:16:24.992Z,8.82
2022-07-30T19:19:09.019Z,10.38
2022-07-30T19:22:02.384Z,11.98
2022-07-30T19:24:40.276Z,9.18
2022-07-30T19:27:24.417Z,10.68
2022-07-30T19:30:00.966Z,10.55
2022-07-30T19:32:42.894Z,11.02
2022-07-30T19:35:32.999Z,12.57
2022-07-30T19:38:42.060Z,12.30
2022-07-30T19:41:18.656Z,12.13
2022-07-30T19:43:58.430Z,10.85
2022-07-30T19:46:36.338Z,13.55
2022-07-30T19:49:23.884Z,9.88
2022-07-30T19:52:51.263Z,8.95
2022-07-30T19:55:49.313Z,10.63
2022-07-30T19:58:26.623Z,8.63
2022-07-30T20:01:08.818Z,10.32
2022-07-30T20:03:45.849Z,10.75
2022-07-30T20:06:52.741Z,9.57
2022-07-30T20:09:48.409Z,8.77
2022-07-30T20:13:09.940Z,11.55
2022-07-30T20:16:17.308Z,8.98
2022-07-30T20:19:19.494Z,8.85
2022-07-30T20:22:18.732Z,12.18
2022-07-30T20:25:09.329Z,8.73
2022-07-30T20:28:01.486Z,8.98
2022-07-30T20:31:12.878Z,8.68
2022-07-30T20:34:02.796Z,8.43
2022-07-30T20:36:58.277Z,8.68
2022-07-30T20:39:59.082Z,8.23
2022-07-30T20:42:57.246Z,11.98
2022-07-30T20:45:49.676Z,8.05
2022-07-30T20:48:49.018Z,10.57
2022-07-30T20:51:38.798Z,8.63
2022-07-30T20:54:24.256Z,11.45
2022-07-30T21:00:23.552Z,9.52
2022-07-30T21:03:21.940Z,9.23
2022-07-30T21:06:05.947Z,9.82
2022-07-30T21:08:49.166Z,7.15
2022-07-30T21:11:50.858Z,9.50
2022-07-30T21:14:39.568Z,8.70
2022-07-30T21:17:50.726Z,7.85
2022-07-30T21:20:32.010Z,7.68
2022-07-30T21:23:31.678Z,9.05
2022-07-30T21:26:10.569Z,10.52
2022-07-30T21:28:50.282Z,7.68
2022-07-30T21:32:03.128Z,6.43
2022-07-30T21:35:11.673Z,9.73
2022-07-30T21:37:51.574Z,7.45
2022-07-30T21:40:30.391Z,10.43
2022-07-30T21:43:08.127Z,8.27
2022-07-30T21:45:45.058Z,7.75
2022-07-30T21:49:09.486Z,8.13
2022-07-30T21:52:06.890Z,7.88
2022-07-30T21:55:26.409Z,8.13
2022-07-30T21:58:26.337Z,9.82
2022-07-30T22:04:40.311Z,10.85
2022-07-30T22:07:23.826Z,8.18
2022-07-30T22:10:14.022Z,10.50
2022-07-30T22:17:22.870Z,11.23
2022-07-30T22:20:30.077Z,10.85
2022-07-30T22:23:16.841Z,7.00
2022-07-30T22:26:04.381Z,7.70
2022-07-30T22:28:42.998Z,8.60
2022-07-30T22:31:54.228Z,9.35
2022-07-30T22:34:40.269Z,10.27
2022-07-30T22:37:21.618Z,11.23
2022-07-30T22:43:40.858Z,9.77
2022-07-30T22:46:38.728Z,9.57
2022-07-30T22:49:49.863Z,10.57
2022-07-30T22:52:58.737Z,8.10
2022-07-30T22:58:36.568Z,5.93
2022-07-30T23:01:23.785Z,8.05
2022-07-30T23:04:04.343Z,7.18
2022-07-30T23:06:57.010Z,5.70
2022-07-30T23:10:28.277Z,9.15
2022-07-30T23:12:28.468Z,7.78
2022-07-30T23:12:32.937Z,7.78
2022-07-30T23:13:17.226Z,7.53
2022-07-30T23:15:58.078Z,7.43
2022-07-30T23:18:39.127Z,6.45
2022-07-30T23:21:16.137Z,9.80
2022-07-30T23:23:56.883Z,5.93
2022-07-30T23:26:35.383Z,6.00
2022-07-30T23:32:05.685Z,5.90
2022-07-30T23:34:57.546Z,9.32
2022-07-30T23:37:48.476Z,8.40
2022-07-30T23:40:51.728Z,7.07
2022-07-30T23:43:42.066Z,6.15
2022-07-30T23:46:23.851Z,7.53
2022-07-30T23:49:01.180Z,10.13
2022-07-30T23:51:41.203Z,11.23
2022-07-30T23:54:20.972Z,8.77
2022-07-30T23:57:06.809Z,8.85
2022-07-30T23:59:55.202Z,9.10
